Aérodrome :
LOGIN :

S'inscrire | Disclaimer

   EN    FR    IT 

 










Légende :    VFR   VFR Marginal   IFR   IFR Intensif   IFR Très Intensif
Visi : 
Plafond : 
>= 8 km
>= 3000ft
5 à 8 km
1000 à 3000 ft
1500m à 5 km
500 à 1000 ft
800 à 1500m
200 à 500 ft
< 800m
< 200 ft
Symboles :   Orages  Brouillard  Fortes neiges  Fortes précipitations  Vent > 20 kt
SIGMETs :   Divers  Orages  Givrage  Turbulence  Onde Orograph.  Cendres Volcan.







- Altitude de l'aérodrome : 158 ft
- Code IATA : QAR


EHDL - Deelen Airbase

DERNIER METAR :
  • 251525Z AUTO 33018KT 280V030 9999 FEW025 BKN030 OVC036 09/03 Q1024 BLU

METARs EXPIRÉS :
  • 251455Z AUTO 32018KT 290V020 9999 SCT023 BKN028 BKN032 09/03 Q1023 WHT
  • 251425Z AUTO 32018KT 260V020 9999 SCT023 BKN026 BKN030 09/03 Q1023 WHT
  • 251355Z AUTO 32018KT 280V010 9999 FEW022 SCT035 BKN040 09/04 Q1023 BLU
  • 251325Z AUTO 34015KT 300V020 9999 -DZ SCT021 BKN024 BKN027 08/04 Q1023 WHT
  • 251255Z AUTO 32018KT 280V010 9000 -RA BKN023 OVC027 08/04 Q1023 WHT

Prévision TAF périmée.
Pas de NOTAMs connus pour ce terrain.



MET'MAP, la Météo Aéronautique d'un coup d'oeil ! - Copyright ORBIFLY Décembre 2007 - Disclaimer

ORBIFLY MET'MAP TEAM :

Programmation & Développement : Alexandra Zaïnal
Conception & Développement : Baudouin d'Aumeries
Co-Programmation & Développement : Marc-Olivier Méhu
Soutien technique & logistique : Manuel Goepfert

Contact : metmap@orbifly.com




SOURCES & CREDITS :

   NOAA